Time;durP1;ratioP1;P1;durP2;ratioP2;P2;SDS_P1;SDS_P2;PMS_P1;PMS_P2;Temp;Humidity;BMP_temperature;BMP_pressure;BME280_temperature;BME280_humidity;BME280_pressure;Samples;Min_cycle;Max_cycle;Signal;HPM_P1;HPM_P2
2021/06/17 00:02:04;;;;;;;;;;;17.40;99.90;;;;;;6166281;23;20380;-79
2021/06/17 00:04:35;;;;;;;;;;;17.40;99.90;;;;;;6192729;23;19920;-79
2021/06/17 00:07:02;;;;;;;;;;;17.40;99.90;;;;;;6190931;23;19920;-78
2021/06/17 00:09:29;;;;;;;;;;;17.40;99.90;;;;;;6165179;23;19971;-79
2021/06/17 00:12:01;;;;;;;;;;;17.40;99.90;;;;;;6165382;23;19947;-79
2021/06/17 00:14:33;;;;;;;;;;;17.30;99.90;;;;;;6166956;23;19962;-79
2021/06/17 00:17:00;;;;;;;;;;;17.30;99.90;;;;;;6190841;23;19920;-79
2021/06/17 00:19:27;;;;;;;;;;;17.20;99.90;;;;;;6165969;23;19920;-79
2021/06/17 00:21:54;;;;;;;;;;;17.20;99.90;;;;;;6165522;23;19994;-79
2021/06/17 00:24:21;;;;;;;;;;;17.20;99.90;;;;;;6190579;23;19927;-79
2021/06/17 00:26:53;;;;;;;;;;;17.20;99.90;;;;;;6166835;23;19999;-79
2021/06/17 00:29:20;;;;;;;;;;;17.10;99.90;;;;;;6165936;23;19920;-79
2021/06/17 00:31:47;;;;;;;;;;;17.10;99.90;;;;;;6165691;23;19947;-78
2021/06/17 00:34:18;;;;;;;;;;;17.00;99.90;;;;;;6191995;23;19994;-79
2021/06/17 00:36:45;;;;;;;;;;;17.00;99.90;;;;;;6190446;23;19924;-79
2021/06/17 00:39:17;;;;;;;;;;;17.00;99.90;;;;;;6190676;23;19999;-79
2021/06/17 00:41:48;;;;;;;;;;;17.00;99.90;;;;;;6166468;23;20320;-79
2021/06/17 00:44:15;;;;;;;;;;;16.90;99.90;;;;;;6165574;23;19962;-79
2021/06/17 00:46:47;;;;;;;;;;;16.80;99.90;;;;;;6166829;23;20416;-78
2021/06/17 00:49:13;;;;;;;;;;;16.80;99.90;;;;;;6165558;23;19924;-79
2021/06/17 00:51:40;;;;;;;;;;;16.80;99.90;;;;;;6164964;23;19920;-79
2021/06/17 00:54:12;;;;;;;;;;;16.80;99.90;;;;;;6166469;23;19924;-79
2021/06/17 00:56:39;;;;;;;;;;;16.70;99.90;;;;;;6165884;23;20007;-80
2021/06/17 00:59:05;;;;;;;;;;;16.70;99.90;;;;;;6165218;23;19951;-79
2021/06/17 01:01:32;;;;;;;;;;;16.60;99.90;;;;;;6189214;23;19924;-79
2021/06/17 01:03:59;;;;;;;;;;;16.60;99.90;;;;;;6189485;23;19954;-78
2021/06/17 01:06:25;;;;;;;;;;;16.60;99.90;;;;;;6164673;23;20333;-80
2021/06/17 01:08:57;;;;;;;;;;;16.60;99.90;;;;;;6166189;23;19955;-78
2021/06/17 01:11:47;;;;;;;;;;;16.50;99.90;;;;;;6164305;23;20359;-80
2021/06/17 01:14:17;;;;;;;;;;;16.50;99.90;;;;;;6174130;23;19920;-79
2021/06/17 01:16:51;;;;;;;;;;;16.40;99.90;;;;;;6193854;23;19920;-80
2021/06/17 01:19:30;;;;;;;;;;;16.40;99.90;;;;;;6166010;23;19943;-80
2021/06/17 01:22:07;;;;;;;;;;;16.40;99.90;;;;;;6192454;23;19951;-80
2021/06/17 01:24:40;;;;;;;;;;;16.40;99.90;;;;;;6166172;23;19959;-79
2021/06/17 01:27:35;;;;;;;;;;;16.40;99.90;;;;;;6164238;23;19920;-79
2021/06/17 01:30:09;;;;;;;;;;;16.40;99.90;;;;;;6164846;23;19951;-79
2021/06/17 01:32:46;;;;;;;;;;;16.30;99.90;;;;;;6165733;23;19924;-80
2021/06/17 01:35:17;;;;;;;;;;;16.20;99.90;;;;;;6164145;23;19919;-78
2021/06/17 01:37:50;;;;;;;;;;;16.20;99.90;;;;;;6165446;23;19920;-79
2021/06/17 01:40:18;;;;;;;;;;;16.10;99.90;;;;;;6188994;23;19983;-78
2021/06/17 01:42:45;;;;;;;;;;;16.10;99.90;;;;;;6189457;23;19920;-79
2021/06/17 01:45:17;;;;;;;;;;;16.10;99.90;;;;;;6165895;23;20408;-79
2021/06/17 01:47:51;;;;;;;;;;;16.10;99.90;;;;;;6165708;23;20011;-80
2021/06/17 01:50:18;;;;;;;;;;;16.00;99.90;;;;;;6164634;23;19974;-79
2021/06/17 01:52:46;;;;;;;;;;;16.00;99.90;;;;;;6164792;23;19955;-79
2021/06/17 01:55:13;;;;;;;;;;;15.90;99.90;;;;;;6164506;23;19974;-79
2021/06/17 01:57:41;;;;;;;;;;;15.90;99.90;;;;;;6164919;23;19986;-79
2021/06/17 02:00:13;;;;;;;;;;;15.90;99.90;;;;;;6165057;23;19924;-78
2021/06/17 02:02:45;;;;;;;;;;;15.90;99.90;;;;;;6166121;23;19927;-79
2021/06/17 02:05:12;;;;;;;;;;;15.90;99.90;;;;;;6164586;23;20437;-78
2021/06/17 02:07:41;;;;;;;;;;;15.80;99.90;;;;;;6189127;23;19967;-78
2021/06/17 02:10:08;;;;;;;;;;;15.80;99.90;;;;;;6164568;23;19947;-78
2021/06/17 02:12:41;;;;;;;;;;;15.80;99.90;;;;;;6165644;23;19931;-79
2021/06/17 02:15:08;;;;;;;;;;;15.70;99.90;;;;;;6164403;23;19951;-79
2021/06/17 02:17:35;;;;;;;;;;;15.70;99.90;;;;;;6164755;23;20407;-79
2021/06/17 02:20:04;;;;;;;;;;;15.70;99.90;;;;;;6189155;23;19920;-78
2021/06/17 02:22:30;;;;;;;;;;;15.70;99.90;;;;;;6164780;23;19954;-79
2021/06/17 02:24:57;;;;;;;;;;;15.70;99.90;;;;;;6188923;23;19951;-79
2021/06/17 02:27:30;;;;;;;;;;;15.60;99.90;;;;;;6189395;23;19927;-79
2021/06/17 02:30:00;;;;;;;;;;;15.60;99.90;;;;;;6164499;23;20420;-78
2021/06/17 02:32:27;;;;;;;;;;;15.60;99.90;;;;;;6164428;23;19951;-78
2021/06/17 02:34:56;;;;;;;;;;;15.60;99.90;;;;;;6164651;23;19920;-79
2021/06/17 02:37:23;;;;;;;;;;;15.60;99.90;;;;;;6189260;23;19974;-78
2021/06/17 02:39:51;;;;;;;;;;;15.60;99.90;;;;;;6164383;23;20315;-79
2021/06/17 02:42:24;;;;;;;;;;;15.60;99.90;;;;;;6165822;23;19955;-78
2021/06/17 02:44:51;;;;;;;;;;;15.50;99.90;;;;;;6164630;23;19989;-78
2021/06/17 02:47:18;;;;;;;;;;;15.50;99.90;;;;;;6165431;23;19967;-78
2021/06/17 02:49:45;;;;;;;;;;;15.50;99.90;;;;;;6166754;23;20406;-78
2021/06/17 02:52:12;;;;;;;;;;;15.50;99.90;;;;;;6166410;23;19948;-78
2021/06/17 02:54:38;;;;;;;;;;;15.50;99.90;;;;;;6191241;23;19920;-79
2021/06/17 02:57:34;;;;;;;;;;;15.40;99.90;;;;;;6166784;23;20363;-78
2021/06/17 03:00:06;;;;;;;;;;;15.30;99.90;;;;;;6190777;23;19920;-79
2021/06/17 03:02:52;;;;;;;;;;;15.30;99.90;;;;;;6166334;23;19920;-78
2021/06/17 03:05:27;;;;;;;;;;;15.30;99.90;;;;;;6166710;23;19962;-78
2021/06/17 03:08:13;;;;;;;;;;;15.20;99.90;;;;;;6190943;23;19944;-79
2021/06/17 03:10:51;;;;;;;;;;;15.20;99.90;;;;;;6190545;23;19956;-78
2021/06/17 03:13:19;;;;;;;;;;;15.20;99.90;;;;;;6191337;23;20363;-79
2021/06/17 03:15:47;;;;;;;;;;;15.10;99.90;;;;;;6166614;23;20342;-77
2021/06/17 03:18:19;;;;;;;;;;;15.10;99.90;;;;;;6167702;23;20006;-78
2021/06/17 03:20:52;;;;;;;;;;;15.10;99.90;;;;;;6169131;23;19935;-80
2021/06/17 03:23:26;;;;;;;;;;;15.20;99.90;;;;;;6167815;23;19947;-79
2021/06/17 03:25:58;;;;;;;;;;;15.10;99.90;;;;;;6167265;23;19919;-79
2021/06/17 03:28:26;;;;;;;;;;;15.20;99.90;;;;;;6166689;23;19920;-79
2021/06/17 03:30:53;;;;;;;;;;;15.10;99.90;;;;;;6166682;23;19920;-79
2021/06/17 03:33:21;;;;;;;;;;;15.10;99.90;;;;;;6166717;23;19951;-80
2021/06/17 03:35:48;;;;;;;;;;;15.10;99.90;;;;;;6167058;23;20345;-79
2021/06/17 03:38:15;;;;;;;;;;;15.00;99.90;;;;;;6191425;23;19920;-79
2021/06/17 03:40:43;;;;;;;;;;;15.10;99.90;;;;;;6165551;23;19931;-79
2021/06/17 03:43:12;;;;;;;;;;;15.30;99.90;;;;;;6191583;23;19920;-80
2021/06/17 03:45:44;;;;;;;;;;;15.30;99.90;;;;;;6190887;23;20395;-79
2021/06/17 03:48:13;;;;;;;;;;;15.20;99.90;;;;;;6166584;23;19966;-80
2021/06/17 03:50:45;;;;;;;;;;;15.10;99.90;;;;;;6167363;23;20301;-79
2021/06/17 03:53:19;;;;;;;;;;;15.10;99.90;;;;;;6167252;23;19924;-79
2021/06/17 03:55:46;;;;;;;;;;;15.10;99.90;;;;;;6166271;23;20372;-79
2021/06/17 03:58:12;;;;;;;;;;;15.10;99.90;;;;;;6166127;23;19970;-79
2021/06/17 04:00:44;;;;;;;;;;;15.00;99.90;;;;;;6191053;23;20003;-79
2021/06/17 04:03:16;;;;;;;;;;;15.00;99.90;;;;;;6166809;23;19943;-78
2021/06/17 04:05:48;;;;;;;;;;;14.90;99.90;;;;;;6167024;23;19920;-80
2021/06/17 04:08:16;;;;;;;;;;;15.00;99.90;;;;;;6190726;23;20010;-79
2021/06/17 04:10:48;;;;;;;;;;;15.00;99.90;;;;;;6166943;23;19924;-79
2021/06/17 04:13:14;;;;;;;;;;;15.00;99.90;;;;;;6189485;23;20231;-78
2021/06/17 04:15:43;;;;;;;;;;;15.10;99.90;;;;;;6189778;23;20104;-79
2021/06/17 04:18:15;;;;;;;;;;;15.10;99.90;;;;;;6190380;23;20007;-79
2021/06/17 04:20:47;;;;;;;;;;;15.10;99.90;;;;;;6191158;23;19920;-79
2021/06/17 04:23:19;;;;;;;;;;;15.10;99.90;;;;;;6165884;23;19943;-79
2021/06/17 04:25:52;;;;;;;;;;;15.10;99.90;;;;;;6189242;23;19991;-79
2021/06/17 04:28:20;;;;;;;;;;;15.10;99.90;;;;;;6164770;23;20276;-79
2021/06/17 04:30:47;;;;;;;;;;;15.10;99.90;;;;;;6189925;23;19947;-79
2021/06/17 04:33:16;;;;;;;;;;;15.10;99.90;;;;;;6216490;23;19947;-78
2021/06/17 04:35:50;;;;;;;;;;;15.20;99.90;;;;;;6166414;23;20313;-79
2021/06/17 04:38:17;;;;;;;;;;;15.20;99.90;;;;;;6165743;23;19969;-79
2021/06/17 04:40:48;;;;;;;;;;;15.30;99.90;;;;;;6173444;23;19924;-80
2021/06/17 04:43:21;;;;;;;;;;;15.30;99.90;;;;;;6170245;23;19955;-80
2021/06/17 04:45:50;;;;;;;;;;;15.30;99.90;;;;;;6171265;23;19927;-80
2021/06/17 04:48:22;;;;;;;;;;;15.40;99.90;;;;;;6192540;23;19954;-80
2021/06/17 04:50:55;;;;;;;;;;;15.50;99.90;;;;;;6166798;23;19920;-80
2021/06/17 04:53:28;;;;;;;;;;;15.50;99.90;;;;;;6191885;23;19969;-79
2021/06/17 04:55:55;;;;;;;;;;;15.60;99.90;;;;;;6165628;23;19947;-80
2021/06/17 04:58:24;;;;;;;;;;;15.60;99.90;;;;;;6190241;23;20416;-79
2021/06/17 05:00:56;;;;;;;;;;;15.70;99.90;;;;;;6191288;23;20002;-79
2021/06/17 05:03:24;;;;;;;;;;;15.70;99.90;;;;;;6190020;23;19924;-78
2021/06/17 05:05:58;;;;;;;;;;;15.80;99.90;;;;;;6166194;23;19954;-78
2021/06/17 05:10:54;;;;;;;;;;;15.80;99.90;;;;;;6190032;23;19990;-79
2021/06/17 05:13:30;;;;;;;;;;;15.80;99.90;;;;;;6189933;23;19920;-79
2021/06/17 05:15:59;;;;;;;;;;;15.80;99.90;;;;;;6165642;23;19990;-81
2021/06/17 05:18:28;;;;;;;;;;;15.90;99.90;;;;;;6165802;23;19920;-79
2021/06/17 05:20:57;;;;;;;;;;;16.00;99.90;;;;;;6165847;23;19927;-80
2021/06/17 05:23:25;;;;;;;;;;;16.00;99.90;;;;;;6190815;23;19920;-80
2021/06/17 05:25:54;;;;;;;;;;;16.10;99.90;;;;;;6166170;23;19931;-80
2021/06/17 05:28:24;;;;;;;;;;;16.10;99.90;;;;;;6166068;23;19931;-80
2021/06/17 05:30:53;;;;;;;;;;;16.10;99.90;;;;;;6166400;23;19920;-80
2021/06/17 05:33:21;;;;;;;;;;;16.20;99.90;;;;;;6166575;23;19920;-80
2021/06/17 05:35:48;;;;;;;;;;;16.20;99.90;;;;;;6191173;23;19920;-80
2021/06/17 05:38:17;;;;;;;;;;;16.20;99.90;;;;;;6166689;23;19920;-79
2021/06/17 05:40:45;;;;;;;;;;;16.30;99.90;;;;;;6166260;23;19958;-80
2021/06/17 05:43:13;;;;;;;;;;;16.40;99.90;;;;;;6191314;23;19924;-80
2021/06/17 05:45:43;;;;;;;;;;;16.50;99.90;;;;;;6167195;23;19924;-80
2021/06/17 05:48:16;;;;;;;;;;;16.60;99.90;;;;;;6190773;23;19920;-80
2021/06/17 05:50:44;;;;;;;;;;;16.60;99.90;;;;;;6166162;23;19951;-80
2021/06/17 05:53:12;;;;;;;;;;;16.60;99.90;;;;;;6166309;23;19970;-80
2021/06/17 05:55:40;;;;;;;;;;;16.70;99.90;;;;;;6191732;23;19920;-80
2021/06/17 05:58:13;;;;;;;;;;;16.80;99.90;;;;;;6191142;23;19931;-80
2021/06/17 06:00:40;;;;;;;;;;;16.80;99.90;;;;;;6190583;23;19920;-80
2021/06/17 06:03:08;;;;;;;;;;;16.90;99.90;;;;;;6191260;23;20437;-80
2021/06/17 06:05:35;;;;;;;;;;;16.90;99.90;;;;;;6166308;23;19978;-80
2021/06/17 06:08:10;;;;;;;;;;;17.00;99.90;;;;;;6166170;23;19960;-80
2021/06/17 06:10:39;;;;;;;;;;;17.10;99.90;;;;;;6191406;23;19920;-80
2021/06/17 06:18:59;;;;;;;;;;;17.30;99.90;;;;;;6248849;22;19958;-81
2021/06/17 06:21:27;;;;;;;;;;;17.40;99.90;;;;;;6193860;23;19994;-81
2021/06/17 06:23:54;;;;;;;;;;;17.50;99.90;;;;;;6190358;23;19927;-81
2021/06/17 06:26:22;;;;;;;;;;;17.50;99.90;;;;;;6189816;23;19943;-81
2021/06/17 06:28:49;;;;;;;;;;;17.60;99.90;;;;;;6190768;23;19951;-81
2021/06/17 06:31:17;;;;;;;;;;;17.70;99.90;;;;;;6191020;23;20325;-81
2021/06/17 06:33:44;;;;;;;;;;;17.80;99.90;;;;;;6215733;23;20007;-81
2021/06/17 06:36:12;;;;;;;;;;;17.80;99.90;;;;;;6216528;23;19967;-81
2021/06/17 06:38:39;;;;;;;;;;;17.90;99.90;;;;;;6215888;23;19920;-81
2021/06/17 06:41:08;;;;;;;;;;;18.00;99.90;;;;;;6166899;23;19927;-81
2021/06/17 06:43:35;;;;;;;;;;;18.10;99.90;;;;;;6191234;23;19920;-82
2021/06/17 06:46:03;;;;;;;;;;;18.10;99.90;;;;;;6191550;23;19943;-81
2021/06/17 06:48:35;;;;;;;;;;;18.30;99.90;;;;;;6168422;23;19920;-82
2021/06/17 06:51:02;;;;;;;;;;;18.30;99.90;;;;;;6216828;23;19920;-82
2021/06/17 07:02:51;;;;;;;;;;;18.80;99.90;;;;;;6223347;23;19974;-80
2021/06/17 07:05:19;;;;;;;;;;;19.00;99.90;;;;;;6169491;23;19924;-80
2021/06/17 07:07:46;;;;;;;;;;;19.10;99.90;;;;;;6192555;23;20349;-80
2021/06/17 07:10:14;;;;;;;;;;;19.20;99.90;;;;;;6167695;23;20002;-81
2021/06/17 07:12:42;;;;;;;;;;;19.30;99.90;;;;;;6193349;23;19919;-81
2021/06/17 07:15:10;;;;;;;;;;;19.50;99.90;;;;;;6167571;23;19920;-80
2021/06/17 07:17:44;;;;;;;;;;;19.50;99.90;;;;;;6168774;23;19920;-80
2021/06/17 07:20:14;;;;;;;;;;;19.60;99.90;;;;;;6205892;23;20234;-79
2021/06/17 07:22:41;;;;;;;;;;;19.70;99.90;;;;;;6174814;23;20301;-81
2021/06/17 07:25:09;;;;;;;;;;;19.80;99.90;;;;;;6202748;22;19930;-81
2021/06/17 07:27:38;;;;;;;;;;;20.00;99.90;;;;;;6204091;23;19924;-80
2021/06/17 07:30:06;;;;;;;;;;;20.00;99.90;;;;;;6228945;23;20337;-80
2021/06/17 07:32:34;;;;;;;;;;;20.10;99.90;;;;;;6228388;23;19923;-80
2021/06/17 07:37:52;;;;;;;;;;;20.40;99.90;;;;;;6226291;23;19927;-81
2021/06/17 07:40:20;;;;;;;;;;;20.50;99.90;;;;;;6174898;23;19950;-81
2021/06/17 07:42:48;;;;;;;;;;;20.60;99.90;;;;;;6173710;23;19967;-81
2021/06/17 07:45:15;;;;;;;;;;;20.70;99.90;;;;;;6173441;23;19924;-81
2021/06/17 07:47:43;;;;;;;;;;;20.80;99.90;;;;;;6196940;23;19920;-81
2021/06/17 07:50:11;;;;;;;;;;;21.00;99.90;;;;;;6172607;23;20261;-81
2021/06/17 07:52:38;;;;;;;;;;;21.10;99.90;;;;;;6197131;23;19920;-81
2021/06/17 07:55:06;;;;;;;;;;;21.20;99.90;;;;;;6172404;23;20260;-81
2021/06/17 07:57:34;;;;;;;;;;;21.30;99.90;;;;;;6196588;23;20265;-81
2021/06/17 08:00:03;;;;;;;;;;;21.40;99.90;;;;;;6196464;23;19957;-81
2021/06/17 08:02:35;;;;;;;;;;;21.50;99.90;;;;;;6197037;23;19955;-81
2021/06/17 08:05:03;;;;;;;;;;;21.70;99.90;;;;;;6195645;23;19920;-81
2021/06/17 08:07:30;;;;;;;;;;;21.90;99.90;;;;;;6204042;23;19920;-82
2021/06/17 08:09:58;;;;;;;;;;;21.90;99.90;;;;;;6193406;23;19920;-81
2021/06/17 08:12:29;;;;;;;;;;;22.10;99.90;;;;;;6192301;23;19923;-81
2021/06/17 08:14:57;;;;;;;;;;;22.20;99.90;;;;;;6215619;23;19926;-82
2021/06/17 08:17:24;;;;;;;;;;;22.30;99.90;;;;;;6174535;23;20269;-81
2021/06/17 08:19:52;;;;;;;;;;;22.50;99.90;;;;;;6168915;23;19920;-81
2021/06/17 08:22:24;;;;;;;;;;;22.60;99.90;;;;;;6168737;23;19947;-81
2021/06/17 08:24:52;;;;;;;;;;;22.80;99.90;;;;;;6168113;23;19920;-82
2021/06/17 08:27:19;;;;;;;;;;;22.90;99.90;;;;;;6193121;23;19974;-81
2021/06/17 08:29:46;;;;;;;;;;;23.10;99.90;;;;;;6168089;23;19920;-81
2021/06/17 08:32:14;;;;;;;;;;;23.20;99.90;;;;;;6168051;23;19999;-82
2021/06/17 08:34:42;;;;;;;;;;;23.30;99.90;;;;;;6167653;23;19924;-81
2021/06/17 08:37:11;;;;;;;;;;;23.40;99.90;;;;;;6148153;23;19920;-81
2021/06/17 08:39:38;;;;;;;;;;;23.60;99.90;;;;;;6139787;23;19964;-81
2021/06/17 08:42:06;;;;;;;;;;;23.60;99.90;;;;;;6165604;23;19920;-81
2021/06/17 08:44:33;;;;;;;;;;;23.70;99.90;;;;;;6141779;23;19967;-81
2021/06/17 08:47:00;;;;;;;;;;;23.80;99.90;;;;;;6166108;23;19944;-81
2021/06/17 08:49:28;;;;;;;;;;;23.90;99.90;;;;;;6167050;23;19990;-81
2021/06/17 08:51:58;;;;;;;;;;;24.10;99.90;;;;;;6143022;23;19924;-82
2021/06/17 08:54:26;;;;;;;;;;;24.20;99.90;;;;;;6168461;23;19924;-81
2021/06/17 08:56:58;;;;;;;;;;;24.30;99.90;;;;;;6145765;23;19920;-81
2021/06/17 08:59:29;;;;;;;;;;;24.40;99.90;;;;;;6146256;23;19924;-82
2021/06/17 09:02:00;;;;;;;;;;;24.50;99.90;;;;;;6148082;23;20392;-81
2021/06/17 09:04:28;;;;;;;;;;;24.60;99.90;;;;;;6149464;23;19926;-82
2021/06/17 09:07:03;;;;;;;;;;;24.70;99.90;;;;;;6175340;23;19924;-82
2021/06/17 09:09:31;;;;;;;;;;;24.80;99.90;;;;;;6151011;23;19920;-81
2021/06/17 09:11:59;;;;;;;;;;;24.90;99.90;;;;;;6175451;23;19927;-81
2021/06/17 09:14:28;;;;;;;;;;;25.10;99.90;;;;;;6177189;23;19943;-82
2021/06/17 09:17:07;;;;;;;;;;;25.20;99.90;;;;;;6151278;23;19924;-81
2021/06/17 09:19:34;;;;;;;;;;;25.20;99.90;;;;;;6176842;23;20003;-81
2021/06/17 09:22:02;;;;;;;;;;;25.30;99.90;;;;;;6153121;23;19920;-82
2021/06/17 09:24:36;;;;;;;;;;;25.40;99.90;;;;;;6178491;22;19927;-81
2021/06/17 09:27:18;;;;;;;;;;;25.50;99.90;;;;;;6235491;23;19919;-81
2021/06/17 09:29:53;;;;;;;;;;;25.60;99.90;;;;;;6235829;23;19920;-81
2021/06/17 09:32:23;;;;;;;;;;;25.80;99.90;;;;;;6210158;23;19920;-81
2021/06/17 09:37:48;;;;;;;;;;;26.00;99.90;;;;;;6266124;22;20022;-81
2021/06/17 09:40:27;;;;;;;;;;;26.20;99.90;;;;;;6240493;23;19926;-80
2021/06/17 09:46:02;;;;;;;;;;;26.40;99.90;;;;;;6263284;22;20045;-81
2021/06/17 09:48:31;;;;;;;;;;;26.50;99.90;;;;;;6214353;23;19904;-81
2021/06/17 09:50:58;;;;;;;;;;;26.70;99.90;;;;;;6213085;23;19920;-81
2021/06/17 09:53:26;;;;;;;;;;;26.70;99.90;;;;;;6211038;23;19994;-81
2021/06/17 09:55:53;;;;;;;;;;;26.90;99.90;;;;;;6212075;23;19920;-81
2021/06/17 09:58:37;;;;;;;;;;;27.00;99.90;;;;;;6237417;23;19978;-81
2021/06/17 10:01:06;;;;;;;;;;;27.20;99.90;;;;;;6207870;23;19923;-82
2021/06/17 10:03:33;;;;;;;;;;;27.30;99.90;;;;;;6203809;23;19969;-83
2021/06/17 10:06:00;;;;;;;;;;;27.50;97.90;;;;;;6202272;23;19919;-84
2021/06/17 10:08:27;;;;;;;;;;;27.60;93.40;;;;;;6207129;23;19919;-85
2021/06/17 10:10:53;;;;;;;;;;;27.70;95.30;;;;;;6209226;23;19970;-82
2021/06/17 10:13:26;;;;;;;;;;;27.80;95.80;;;;;;6232132;22;19919;-83
2021/06/17 10:15:58;;;;;;;;;;;27.90;96.00;;;;;;6203640;23;19930;-84
2021/06/17 10:18:24;;;;;;;;;;;28.00;91.20;;;;;;6201620;23;19947;-85
2021/06/17 10:20:51;;;;;;;;;;;28.10;92.00;;;;;;6202186;23;19946;-85
2021/06/17 10:23:19;;;;;;;;;;;28.10;90.40;;;;;;6201826;22;19935;-84
2021/06/17 10:25:47;;;;;;;;;;;28.20;87.30;;;;;;6200683;23;19927;-84
2021/06/17 10:28:33;;;;;;;;;;;28.30;85.90;;;;;;6201488;23;19920;-84
2021/06/17 10:31:00;;;;;;;;;;;28.50;83.10;;;;;;6200333;23;19920;-87
2021/06/17 10:33:32;;;;;;;;;;;28.60;78.50;;;;;;6201643;23;19920;-85
2021/06/17 10:36:22;;;;;;;;;;;28.70;77.40;;;;;;6202383;23;19924;-85
2021/06/17 10:39:10;;;;;;;;;;;28.80;80.00;;;;;;6225251;23;19919;-85
2021/06/17 10:41:46;;;;;;;;;;;28.90;76.80;;;;;;6224491;23;19920;-85
2021/06/17 10:44:31;;;;;;;;;;;28.80;71.50;;;;;;6196110;23;20317;-86
2021/06/17 10:46:59;;;;;;;;;;;29.00;69.80;;;;;;6190493;23;19970;-86
2021/06/17 10:49:58;;;;;;;;;;;29.10;69.50;;;;;;6161756;23;19923;-86
2021/06/17 10:52:31;;;;;;;;;;;29.20;69.60;;;;;;6128063;23;19982;-85
2021/06/17 10:55:03;;;;;;;;;;;29.40;68.70;;;;;;6139333;23;19951;-87
2021/06/17 10:57:42;;;;;;;;;;;29.50;63.80;;;;;;6165144;23;19947;-87
2021/06/17 11:02:56;;;;;;;;;;;29.70;59.10;;;;;;6189435;23;19952;-86
2021/06/17 11:05:31;;;;;;;;;;;29.80;60.40;;;;;;6164615;23;19930;-86
2021/06/17 11:08:16;;;;;;;;;;;29.80;56.60;;;;;;6188253;23;19920;-87
2021/06/17 11:10:52;;;;;;;;;;;29.90;55.70;;;;;;6166114;23;19920;-86
2021/06/17 11:13:38;;;;;;;;;;;29.90;56.50;;;;;;6170836;23;19927;-86
2021/06/17 11:16:29;;;;;;;;;;;30.00;55.20;;;;;;6197227;23;19928;-83
2021/06/17 11:19:09;;;;;;;;;;;30.10;52.40;;;;;;6196156;23;19927;-87
2021/06/17 11:21:41;;;;;;;;;;;30.20;51.20;;;;;;6196376;23;19935;-86
2021/06/17 11:24:09;;;;;;;;;;;30.30;51.20;;;;;;6170840;23;19920;-86
2021/06/17 11:26:49;;;;;;;;;;;30.30;49.00;;;;;;6170803;23;19924;-86
2021/06/17 11:29:28;;;;;;;;;;;30.30;50.30;;;;;;6195532;23;19970;-86
2021/06/17 11:31:54;;;;;;;;;;;30.40;50.00;;;;;;6170063;23;19951;-86
2021/06/17 11:34:41;;;;;;;;;;;30.50;46.80;;;;;;6173110;23;19998;-82
2021/06/17 11:37:14;;;;;;;;;;;30.50;46.20;;;;;;6176227;23;19967;-84
2021/06/17 11:39:46;;;;;;;;;;;30.50;45.90;;;;;;6174921;23;19920;-84
2021/06/17 11:42:17;;;;;;;;;;;30.60;46.70;;;;;;6197250;23;19920;-83
2021/06/17 11:44:57;;;;;;;;;;;30.60;47.10;;;;;;6201961;23;19920;-84
2021/06/17 11:47:25;;;;;;;;;;;30.70;49.20;;;;;;6198679;23;19924;-84
2021/06/17 11:49:52;;;;;;;;;;;30.80;47.40;;;;;;6224815;23;19942;-84
2021/06/17 11:52:21;;;;;;;;;;;30.90;46.80;;;;;;6224639;23;19974;-83
2021/06/17 11:55:02;;;;;;;;;;;30.90;46.30;;;;;;6202240;23;19984;-83
2021/06/17 11:57:29;;;;;;;;;;;31.00;46.80;;;;;;6197961;23;19920;-84
2021/06/17 11:59:56;;;;;;;;;;;31.10;45.60;;;;;;6225737;23;19966;-80
2021/06/17 12:02:23;;;;;;;;;;;31.10;47.60;;;;;;6202456;23;19926;-85
2021/06/17 12:05:10;;;;;;;;;;;31.40;48.80;;;;;;6206818;23;19920;-86
2021/06/17 12:07:44;;;;;;;;;;;31.50;47.30;;;;;;6208783;23;19943;-86
2021/06/17 12:10:20;;;;;;;;;;;31.60;46.50;;;;;;6233441;23;19920;-85
2021/06/17 12:12:46;;;;;;;;;;;31.60;45.50;;;;;;6208154;23;19920;-85
2021/06/17 12:15:21;;;;;;;;;;;31.70;45.20;;;;;;6208818;23;20403;-85
2021/06/17 12:17:52;;;;;;;;;;;31.70;48.60;;;;;;6207431;23;19920;-85
2021/06/17 12:20:31;;;;;;;;;;;31.80;46.70;;;;;;6229659;23;19927;-86
2021/06/17 12:23:02;;;;;;;;;;;31.80;46.70;;;;;;6233060;23;19927;-87
2021/06/17 12:25:33;;;;;;;;;;;31.90;48.20;;;;;;6234054;23;20300;-86
2021/06/17 12:28:00;;;;;;;;;;;32.00;48.50;;;;;;6234249;23;19927;-85
2021/06/17 12:30:30;;;;;;;;;;;32.10;47.40;;;;;;6204786;23;19931;-86
2021/06/17 12:33:05;;;;;;;;;;;32.00;46.60;;;;;;6208017;23;19920;-86
2021/06/17 12:35:39;;;;;;;;;;;32.10;48.00;;;;;;6207357;23;19971;-85
2021/06/17 12:38:06;;;;;;;;;;;32.10;48.00;;;;;;6204162;23;19904;-86
2021/06/17 12:40:38;;;;;;;;;;;32.10;48.20;;;;;;6205448;23;19920;-85
2021/06/17 12:43:23;;;;;;;;;;;32.30;48.00;;;;;;6203069;23;19948;-85
2021/06/17 12:45:59;;;;;;;;;;;32.30;47.30;;;;;;6212832;23;19985;-85
2021/06/17 12:54:31;;;;;;;;;;;32.50;45.80;;;;;;6237068;23;19919;-85
2021/06/17 12:57:05;;;;;;;;;;;32.60;46.70;;;;;;6237907;23;19919;-86
2021/06/17 12:59:38;;;;;;;;;;;32.70;46.20;;;;;;6231898;23;20300;-82
2021/06/17 13:02:08;;;;;;;;;;;32.80;45.70;;;;;;6222623;23;19923;-80
2021/06/17 13:04:41;;;;;;;;;;;32.80;45.10;;;;;;6223528;23;19923;-86
2021/06/17 13:07:18;;;;;;;;;;;32.60;44.60;;;;;;6200405;23;19970;-86
2021/06/17 13:09:50;;;;;;;;;;;32.80;44.80;;;;;;6219757;23;19969;-85
2021/06/17 13:12:24;;;;;;;;;;;32.90;43.60;;;;;;6222276;23;19974;-85
2021/06/17 13:14:57;;;;;;;;;;;33.10;44.70;;;;;;6222041;23;20357;-86
2021/06/17 13:17:24;;;;;;;;;;;33.20;43.60;;;;;;6199819;23;19920;-89
2021/06/17 13:19:58;;;;;;;;;;;33.10;43.80;;;;;;6224246;23;19951;-85
2021/06/17 13:22:28;;;;;;;;;;;33.10;43.70;;;;;;6223250;23;19919;-86
2021/06/17 13:25:02;;;;;;;;;;;33.20;42.30;;;;;;6198246;23;19939;-86
2021/06/17 13:27:32;;;;;;;;;;;33.40;43.40;;;;;;6199987;23;19920;-85
2021/06/17 13:30:02;;;;;;;;;;;33.40;40.50;;;;;;6223928;23;19919;-85
2021/06/17 13:32:29;;;;;;;;;;;33.70;43.00;;;;;;6225574;23;19930;-86
2021/06/17 13:35:01;;;;;;;;;;;33.90;41.90;;;;;;6203984;23;19942;-85
2021/06/17 13:37:28;;;;;;;;;;;34.20;40.20;;;;;;6228218;23;19919;-84
2021/06/17 13:39:55;;;;;;;;;;;34.10;39.30;;;;;;6228429;23;19926;-84
2021/06/17 13:42:22;;;;;;;;;;;34.20;38.90;;;;;;6203648;23;19942;-83
2021/06/17 13:44:49;;;;;;;;;;;34.30;39.40;;;;;;6206325;23;19926;-82
2021/06/17 13:47:16;;;;;;;;;;;34.30;39.40;;;;;;6203154;23;19942;-84
2021/06/17 13:49:44;;;;;;;;;;;34.40;39.60;;;;;;6202732;23;19930;-84
2021/06/17 13:52:11;;;;;;;;;;;34.50;37.80;;;;;;6202410;23;19954;-83
2021/06/17 13:54:38;;;;;;;;;;;34.60;37.10;;;;;;6198063;23;19966;-84
2021/06/17 13:57:05;;;;;;;;;;;34.70;36.70;;;;;;6202548;23;19920;-84
2021/06/17 13:59:38;;;;;;;;;;;34.80;38.10;;;;;;6203284;23;19930;-84
2021/06/17 14:02:09;;;;;;;;;;;35.10;39.10;;;;;;6201564;23;19920;-85
2021/06/17 14:04:39;;;;;;;;;;;35.20;38.20;;;;;;6202842;23;19919;-81
2021/06/17 14:07:11;;;;;;;;;;;35.20;36.60;;;;;;6203899;23;19935;-81
2021/06/17 14:09:40;;;;;;;;;;;35.30;37.80;;;;;;6204010;23;20333;-84
2021/06/17 14:12:07;;;;;;;;;;;35.30;37.80;;;;;;6203603;23;19926;-80
2021/06/17 14:14:34;;;;;;;;;;;35.40;37.60;;;;;;6203513;23;19939;-83
2021/06/17 14:17:06;;;;;;;;;;;35.20;36.50;;;;;;6203052;23;19920;-83
2021/06/17 14:19:41;;;;;;;;;;;35.30;38.00;;;;;;6204602;23;19916;-81
2021/06/17 14:22:08;;;;;;;;;;;35.50;36.80;;;;;;6202735;23;19919;-83
2021/06/17 14:24:41;;;;;;;;;;;35.90;37.60;;;;;;6204002;23;19920;-83
2021/06/17 14:27:08;;;;;;;;;;;36.00;35.30;;;;;;6228515;23;19920;-82
2021/06/17 14:29:35;;;;;;;;;;;36.00;35.20;;;;;;6203067;23;19919;-83
2021/06/17 14:32:02;;;;;;;;;;;36.00;33.90;;;;;;6201661;23;19919;-81
2021/06/17 14:34:34;;;;;;;;;;;36.10;33.20;;;;;;6205102;23;19950;-84
2021/06/17 14:37:02;;;;;;;;;;;36.00;34.50;;;;;;6201395;23;20256;-83
2021/06/17 14:39:36;;;;;;;;;;;35.80;33.20;;;;;;6203980;23;19931;-84
2021/06/17 14:42:12;;;;;;;;;;;35.40;32.60;;;;;;6203393;23;19967;-82
2021/06/17 14:44:39;;;;;;;;;;;35.50;33.30;;;;;;6230510;23;19920;-82
2021/06/17 14:47:06;;;;;;;;;;;35.50;34.10;;;;;;6206917;23;19920;-83
2021/06/17 14:49:33;;;;;;;;;;;35.50;34.10;;;;;;6231499;23;19927;-82
2021/06/17 14:52:01;;;;;;;;;;;35.40;33.70;;;;;;6207645;23;19920;-80
2021/06/17 14:54:30;;;;;;;;;;;35.40;33.10;;;;;;6206957;23;20337;-82
2021/06/17 14:57:04;;;;;;;;;;;35.60;32.40;;;;;;6207413;23;20340;-82
2021/06/17 14:59:52;;;;;;;;;;;35.70;33.10;;;;;;6225902;23;19946;-82
2021/06/17 15:02:45;;;;;;;;;;;36.00;33.10;;;;;;6237070;23;19942;-81
2021/06/17 15:05:12;;;;;;;;;;;36.20;31.40;;;;;;6205543;23;20303;-81
2021/06/17 15:07:44;;;;;;;;;;;36.40;32.90;;;;;;6206443;23;19926;-83
2021/06/17 15:10:11;;;;;;;;;;;36.60;31.00;;;;;;6204058;23;19923;-86
2021/06/17 15:12:55;;;;;;;;;;;36.60;29.00;;;;;;6206540;23;19920;-83